Banff, Canada
Current Conditions -  °F | °C
As of 12:00 PM on Friday 31 Oct 2014 (Local Time) from CYBW Reporting Station
Overcast Overcast  
Wind Chill: 43°   Ceiling: 19000
Heat Index: 43°   Visibility: 9mi
Dew Point: 36°   Wind: 3mph
Humidity: 76%   Direction: 320°NW
Pressure: 29.6"   Gusts: NA
Location:  51.18°N, 115.57°W
Report Text: CYBW 311800Z AUTO 32003KT 9SM BKN190 OVC210 06/02 A2960 RMK SLP056 DENSITY ALT 4100FT
Loading
Personal Weather Stations






























Interactive Weather Map
Tropical Storm Tracking
New forecast layout! Learn more

10-Day Weather Forecast

Advertisements
Track Severe Weather on mobile